Weather at Cuneo International Airport

Public forecast

Using degrees Celsius for public forecast. Weather courtesy of forecast.io.

Current aviation weather report (METAR) for Cuneo International Airport

Retrieved 2021/01/23 13:20 UTC (30 minutes ago):

LIMZ 231320Z AUTO VRB03KT 9999 BKN180 BKN200 06/01 Q0994

Aviation forecast (TAF) for Cuneo International Airport

Retrieved 2021/01/23 12:21 UTC (1 hour ago):

TAF LIMZ 231100Z 2312/2412 VRB05KT 9999 SCT040 BECMG 2318/2320 4000 BR TEMPO 2322/2406 0800 FG OVC006